sensor_id;sensor_type;location;lat;lon;timestamp;P1;durP1;ratioP1;P2;durP2;ratioP2
19547;SDS011;9919;58.014;11.826;2023-01-05T00:00:05;1.20;;;0.30;;
19547;SDS011;9919;58.014;11.826;2023-01-05T00:02:08;0.10;;;0.10;;
19547;SDS011;9919;58.014;11.826;2023-01-05T00:04:10;0.10;;;0.10;;
19547;SDS011;9919;58.014;11.826;2023-01-05T00:06:12;0.43;;;0.30;;
19547;SDS011;9919;58.014;11.826;2023-01-05T00:08:16;0.15;;;0.13;;
19547;SDS011;9919;58.014;11.826;2023-01-05T00:10:18;0.10;;;0.10;;
19547;SDS011;9919;58.014;11.826;2023-01-05T00:12:38;0.10;;;0.10;;
19547;SDS011;9919;58.014;11.826;2023-01-05T00:14:58;0.10;;;0.10;;
19547;SDS011;9919;58.014;11.826;2023-01-05T00:17:21;2.10;;;0.22;;
19547;SDS011;9919;58.014;11.826;2023-01-05T00:19:42;0.75;;;0.30;;
19547;SDS011;9919;58.014;11.826;2023-01-05T00:22:01;2.42;;;0.30;;
19547;SDS011;9919;58.014;11.826;2023-01-05T00:24:26;0.10;;;0.10;;
19547;SDS011;9919;58.014;11.826;2023-01-05T00:26:28;0.10;;;0.10;;
19547;SDS011;9919;58.014;11.826;2023-01-05T00:28:30;0.10;;;0.10;;
19547;SDS011;9919;58.014;11.826;2023-01-05T00:30:41;0.10;;;0.10;;
19547;SDS011;9919;58.014;11.826;2023-01-05T00:32:44;0.20;;;0.20;;
19547;SDS011;9919;58.014;11.826;2023-01-05T00:34:45;0.20;;;0.20;;
19547;SDS011;9919;58.014;11.826;2023-01-05T00:36:47;0.10;;;0.10;;
19547;SDS011;9919;58.014;11.826;2023-01-05T00:38:48;0.13;;;0.13;;
19547;SDS011;9919;58.014;11.826;2023-01-05T00:40:49;0.30;;;0.30;;
19547;SDS011;9919;58.014;11.826;2023-01-05T00:42:54;0.45;;;0.30;;
19547;SDS011;9919;58.014;11.826;2023-01-05T00:44:57;0.10;;;0.10;;
19547;SDS011;9919;58.014;11.826;2023-01-05T00:46:58;0.28;;;0.17;;
19547;SDS011;9919;58.014;11.826;2023-01-05T00:49:00;0.35;;;0.35;;
19547;SDS011;9919;58.014;11.826;2023-01-05T00:51:01;0.15;;;0.15;;
19547;SDS011;9919;58.014;11.826;2023-01-05T00:53:02;0.30;;;0.30;;
19547;SDS011;9919;58.014;11.826;2023-01-05T00:55:05;0.10;;;0.10;;
19547;SDS011;9919;58.014;11.826;2023-01-05T00:57:09;0.10;;;0.10;;
19547;SDS011;9919;58.014;11.826;2023-01-05T00:59:12;0.10;;;0.10;;
19547;SDS011;9919;58.014;11.826;2023-01-05T01:01:13;0.20;;;0.20;;
19547;SDS011;9919;58.014;11.826;2023-01-05T01:03:14;0.10;;;0.10;;
19547;SDS011;9919;58.014;11.826;2023-01-05T01:05:16;0.10;;;0.10;;
19547;SDS011;9919;58.014;11.826;2023-01-05T01:07:18;0.30;;;0.30;;
19547;SDS011;9919;58.014;11.826;2023-01-05T01:09:19;0.20;;;0.20;;
19547;SDS011;9919;58.014;11.826;2023-01-05T01:11:20;0.20;;;0.20;;
19547;SDS011;9919;58.014;11.826;2023-01-05T01:13:22;0.20;;;0.20;;
19547;SDS011;9919;58.014;11.826;2023-01-05T01:15:24;0.22;;;0.20;;
19547;SDS011;9919;58.014;11.826;2023-01-05T01:17:26;0.15;;;0.15;;
19547;SDS011;9919;58.014;11.826;2023-01-05T01:19:27;0.30;;;0.17;;
19547;SDS011;9919;58.014;11.826;2023-01-05T01:21:29;0.15;;;0.15;;
19547;SDS011;9919;58.014;11.826;2023-01-05T01:23:31;0.10;;;0.10;;
19547;SDS011;9919;58.014;11.826;2023-01-05T01:25:33;0.22;;;0.22;;
19547;SDS011;9919;58.014;11.826;2023-01-05T01:27:38;0.25;;;0.25;;
19547;SDS011;9919;58.014;11.826;2023-01-05T01:29:39;0.10;;;0.10;;
19547;SDS011;9919;58.014;11.826;2023-01-05T01:31:41;0.20;;;0.20;;
19547;SDS011;9919;58.014;11.826;2023-01-05T01:33:43;0.10;;;0.10;;
19547;SDS011;9919;58.014;11.826;2023-01-05T01:35:44;0.10;;;0.10;;
19547;SDS011;9919;58.014;11.826;2023-01-05T01:37:46;0.15;;;0.15;;
19547;SDS011;9919;58.014;11.826;2023-01-05T01:39:47;0.10;;;0.10;;
19547;SDS011;9919;58.014;11.826;2023-01-05T01:41:48;0.10;;;0.10;;
19547;SDS011;9919;58.014;11.826;2023-01-05T01:43:51;0.20;;;0.20;;
19547;SDS011;9919;58.014;11.826;2023-01-05T01:45:54;0.10;;;0.10;;
19547;SDS011;9919;58.014;11.826;2023-01-05T01:47:56;0.10;;;0.10;;
19547;SDS011;9919;58.014;11.826;2023-01-05T01:50:00;0.47;;;0.10;;
19547;SDS011;9919;58.014;11.826;2023-01-05T01:52:29;0.10;;;0.10;;
19547;SDS011;9919;58.014;11.826;2023-01-05T01:54:32;0.10;;;0.10;;
19547;SDS011;9919;58.014;11.826;2023-01-05T01:56:37;0.10;;;0.10;;
19547;SDS011;9919;58.014;11.826;2023-01-05T01:58:49;0.10;;;0.10;;
19547;SDS011;9919;58.014;11.826;2023-01-05T02:00:52;0.40;;;0.40;;
19547;SDS011;9919;58.014;11.826;2023-01-05T02:02:55;0.20;;;0.20;;
19547;SDS011;9919;58.014;11.826;2023-01-05T02:05:00;1.25;;;0.20;;
19547;SDS011;9919;58.014;11.826;2023-01-05T02:07:04;0.10;;;0.10;;
19547;SDS011;9919;58.014;11.826;2023-01-05T02:09:07;0.10;;;0.10;;
19547;SDS011;9919;58.014;11.826;2023-01-05T02:11:14;0.10;;;0.10;;
19547;SDS011;9919;58.014;11.826;2023-01-05T02:20:43;0.10;;;0.10;;
19547;SDS011;9919;58.014;11.826;2023-01-05T02:29:35;0.85;;;0.20;;
19547;SDS011;9919;58.014;11.826;2023-01-05T02:32:13;0.20;;;0.20;;
19547;SDS011;9919;58.014;11.826;2023-01-05T02:39:14;0.05;;;0.05;;
19547;SDS011;9919;58.014;11.826;2023-01-05T02:41:22;0.10;;;0.10;;
19547;SDS011;9919;58.014;11.826;2023-01-05T02:43:30;0.10;;;0.10;;
19547;SDS011;9919;58.014;11.826;2023-01-05T02:45:32;0.10;;;0.10;;
19547;SDS011;9919;58.014;11.826;2023-01-05T02:49:39;0.10;;;0.10;;
19547;SDS011;9919;58.014;11.826;2023-01-05T02:51:43;0.13;;;0.13;;
19547;SDS011;9919;58.014;11.826;2023-01-05T02:53:50;0.70;;;0.08;;
19547;SDS011;9919;58.014;11.826;2023-01-05T02:55:56;0.10;;;0.10;;
19547;SDS011;9919;58.014;11.826;2023-01-05T02:58:02;0.20;;;0.20;;
19547;SDS011;9919;58.014;11.826;2023-01-05T03:02:27;0.10;;;0.10;;
19547;SDS011;9919;58.014;11.826;2023-01-05T03:04:31;0.00;;;0.00;;
19547;SDS011;9919;58.014;11.826;2023-01-05T03:06:47;0.03;;;0.03;;
19547;SDS011;9919;58.014;11.826;2023-01-05T03:09:00;0.10;;;0.10;;
19547;SDS011;9919;58.014;11.826;2023-01-05T03:11:06;0.10;;;0.10;;
19547;SDS011;9919;58.014;11.826;2023-01-05T03:13:28;0.20;;;0.20;;
19547;SDS011;9919;58.014;11.826;2023-01-05T03:15:43;0.10;;;0.10;;
19547;SDS011;9919;58.014;11.826;2023-01-05T03:17:46;0.20;;;0.20;;
19547;SDS011;9919;58.014;11.826;2023-01-05T03:19:57;0.10;;;0.10;;
19547;SDS011;9919;58.014;11.826;2023-01-05T03:22:00;0.20;;;0.20;;
19547;SDS011;9919;58.014;11.826;2023-01-05T03:24:23;0.10;;;0.10;;
19547;SDS011;9919;58.014;11.826;2023-01-05T03:26:43;0.20;;;0.20;;
19547;SDS011;9919;58.014;11.826;2023-01-05T03:29:03;0.10;;;0.10;;
19547;SDS011;9919;58.014;11.826;2023-01-05T03:31:27;0.10;;;0.10;;
19547;SDS011;9919;58.014;11.826;2023-01-05T03:34:08;0.15;;;0.15;;
19547;SDS011;9919;58.014;11.826;2023-01-05T03:36:35;0.10;;;0.10;;
19547;SDS011;9919;58.014;11.826;2023-01-05T03:38:43;0.10;;;0.10;;
19547;SDS011;9919;58.014;11.826;2023-01-05T03:40:46;0.10;;;0.10;;
19547;SDS011;9919;58.014;11.826;2023-01-05T03:42:51;0.00;;;0.00;;
19547;SDS011;9919;58.014;11.826;2023-01-05T03:44:53;0.10;;;0.10;;
19547;SDS011;9919;58.014;11.826;2023-01-05T03:46:55;0.20;;;0.20;;
19547;SDS011;9919;58.014;11.826;2023-01-05T03:48:56;0.10;;;0.10;;
19547;SDS011;9919;58.014;11.826;2023-01-05T03:50:59;0.10;;;0.10;;
19547;SDS011;9919;58.014;11.826;2023-01-05T03:53:00;0.10;;;0.10;;
19547;SDS011;9919;58.014;11.826;2023-01-05T03:55:02;0.10;;;0.10;;
19547;SDS011;9919;58.014;11.826;2023-01-05T03:57:03;0.25;;;0.17;;
19547;SDS011;9919;58.014;11.826;2023-01-05T03:59:05;0.20;;;0.10;;
19547;SDS011;9919;58.014;11.826;2023-01-05T04:01:06;0.10;;;0.10;;
19547;SDS011;9919;58.014;11.826;2023-01-05T04:03:07;0.10;;;0.10;;
19547;SDS011;9919;58.014;11.826;2023-01-05T04:05:09;0.10;;;0.10;;
19547;SDS011;9919;58.014;11.826;2023-01-05T04:07:11;0.13;;;0.13;;
19547;SDS011;9919;58.014;11.826;2023-01-05T04:09:13;0.10;;;0.10;;
19547;SDS011;9919;58.014;11.826;2023-01-05T04:11:19;0.20;;;0.20;;
19547;SDS011;9919;58.014;11.826;2023-01-05T04:13:21;0.17;;;0.17;;
19547;SDS011;9919;58.014;11.826;2023-01-05T04:15:22;0.10;;;0.10;;
19547;SDS011;9919;58.014;11.826;2023-01-05T04:17:24;0.17;;;0.17;;
19547;SDS011;9919;58.014;11.826;2023-01-05T04:19:26;0.10;;;0.10;;
19547;SDS011;9919;58.014;11.826;2023-01-05T04:21:27;0.13;;;0.13;;
19547;SDS011;9919;58.014;11.826;2023-01-05T04:23:30;0.43;;;0.40;;
19547;SDS011;9919;58.014;11.826;2023-01-05T04:25:32;0.10;;;0.10;;
19547;SDS011;9919;58.014;11.826;2023-01-05T04:27:33;0.20;;;0.20;;
19547;SDS011;9919;58.014;11.826;2023-01-05T04:29:34;0.20;;;0.20;;
19547;SDS011;9919;58.014;11.826;2023-01-05T04:31:36;0.20;;;0.20;;
19547;SDS011;9919;58.014;11.826;2023-01-05T04:33:37;0.10;;;0.10;;
19547;SDS011;9919;58.014;11.826;2023-01-05T04:35:39;0.38;;;0.20;;
19547;SDS011;9919;58.014;11.826;2023-01-05T04:37:40;0.10;;;0.10;;
19547;SDS011;9919;58.014;11.826;2023-01-05T04:39:41;0.10;;;0.10;;
19547;SDS011;9919;58.014;11.826;2023-01-05T04:41:43;0.10;;;0.10;;
19547;SDS011;9919;58.014;11.826;2023-01-05T04:43:44;0.20;;;0.20;;
19547;SDS011;9919;58.014;11.826;2023-01-05T04:45:46;0.22;;;0.20;;
19547;SDS011;9919;58.014;11.826;2023-01-05T04:47:49;0.10;;;0.10;;
19547;SDS011;9919;58.014;11.826;2023-01-05T04:49:51;0.15;;;0.15;;
19547;SDS011;9919;58.014;11.826;2023-01-05T04:51:53;0.10;;;0.10;;
19547;SDS011;9919;58.014;11.826;2023-01-05T04:53:55;0.13;;;0.13;;
19547;SDS011;9919;58.014;11.826;2023-01-05T04:55:56;0.32;;;0.32;;
19547;SDS011;9919;58.014;11.826;2023-01-05T04:57:58;0.20;;;0.20;;
19547;SDS011;9919;58.014;11.826;2023-01-05T04:59:59;0.20;;;0.20;;
19547;SDS011;9919;58.014;11.826;2023-01-05T05:02:01;0.13;;;0.13;;
19547;SDS011;9919;58.014;11.826;2023-01-05T05:04:02;0.20;;;0.20;;
19547;SDS011;9919;58.014;11.826;2023-01-05T05:06:03;0.20;;;0.20;;
19547;SDS011;9919;58.014;11.826;2023-01-05T05:08:05;0.17;;;0.17;;
19547;SDS011;9919;58.014;11.826;2023-01-05T05:10:07;0.10;;;0.10;;
19547;SDS011;9919;58.014;11.826;2023-01-05T05:12:08;0.20;;;0.13;;
19547;SDS011;9919;58.014;11.826;2023-01-05T05:14:10;0.20;;;0.20;;
19547;SDS011;9919;58.014;11.826;2023-01-05T05:16:11;0.10;;;0.10;;
19547;SDS011;9919;58.014;11.826;2023-01-05T05:18:13;0.20;;;0.20;;
19547;SDS011;9919;58.014;11.826;2023-01-05T05:20:14;0.10;;;0.10;;
19547;SDS011;9919;58.014;11.826;2023-01-05T05:22:16;0.10;;;0.10;;
19547;SDS011;9919;58.014;11.826;2023-01-05T05:24:17;0.10;;;0.10;;
19547;SDS011;9919;58.014;11.826;2023-01-05T05:26:18;0.10;;;0.10;;
19547;SDS011;9919;58.014;11.826;2023-01-05T05:28:20;0.40;;;0.30;;
19547;SDS011;9919;58.014;11.826;2023-01-05T05:30:23;0.10;;;0.10;;
19547;SDS011;9919;58.014;11.826;2023-01-05T05:32:24;0.20;;;0.20;;
19547;SDS011;9919;58.014;11.826;2023-01-05T05:34:26;1.17;;;0.30;;
19547;SDS011;9919;58.014;11.826;2023-01-05T05:36:28;0.10;;;0.10;;
19547;SDS011;9919;58.014;11.826;2023-01-05T05:38:29;3.60;;;0.20;;
19547;SDS011;9919;58.014;11.826;2023-01-05T05:40:30;0.10;;;0.10;;
19547;SDS011;9919;58.014;11.826;2023-01-05T05:42:32;0.25;;;0.20;;
19547;SDS011;9919;58.014;11.826;2023-01-05T05:44:33;0.10;;;0.10;;
19547;SDS011;9919;58.014;11.826;2023-01-05T05:46:35;0.10;;;0.10;;
19547;SDS011;9919;58.014;11.826;2023-01-05T05:48:36;0.20;;;0.20;;
19547;SDS011;9919;58.014;11.826;2023-01-05T05:50:37;0.10;;;0.10;;
19547;SDS011;9919;58.014;11.826;2023-01-05T05:52:39;0.10;;;0.10;;
19547;SDS011;9919;58.014;11.826;2023-01-05T05:54:40;0.10;;;0.10;;
19547;SDS011;9919;58.014;11.826;2023-01-05T05:56:41;0.20;;;0.20;;
19547;SDS011;9919;58.014;11.826;2023-01-05T05:58:43;0.10;;;0.10;;
19547;SDS011;9919;58.014;11.826;2023-01-05T06:00:44;0.00;;;0.00;;
19547;SDS011;9919;58.014;11.826;2023-01-05T06:02:47;0.10;;;0.10;;
19547;SDS011;9919;58.014;11.826;2023-01-05T06:04:48;0.10;;;0.10;;
19547;SDS011;9919;58.014;11.826;2023-01-05T06:06:49;0.10;;;0.10;;
19547;SDS011;9919;58.014;11.826;2023-01-05T06:08:51;0.20;;;0.20;;
19547;SDS011;9919;58.014;11.826;2023-01-05T06:10:52;0.20;;;0.20;;
19547;SDS011;9919;58.014;11.826;2023-01-05T06:12:53;0.20;;;0.20;;
19547;SDS011;9919;58.014;11.826;2023-01-05T06:14:55;0.20;;;0.20;;
19547;SDS011;9919;58.014;11.826;2023-01-05T06:16:56;0.10;;;0.10;;
19547;SDS011;9919;58.014;11.826;2023-01-05T06:18:58;0.10;;;0.10;;
19547;SDS011;9919;58.014;11.826;2023-01-05T06:20:59;0.10;;;0.10;;
19547;SDS011;9919;58.014;11.826;2023-01-05T06:23:00;0.30;;;0.30;;
19547;SDS011;9919;58.014;11.826;2023-01-05T06:25:02;0.32;;;0.20;;
19547;SDS011;9919;58.014;11.826;2023-01-05T06:27:04;0.10;;;0.10;;
19547;SDS011;9919;58.014;11.826;2023-01-05T06:29:07;0.17;;;0.17;;
19547;SDS011;9919;58.014;11.826;2023-01-05T06:31:09;0.17;;;0.17;;
19547;SDS011;9919;58.014;11.826;2023-01-05T06:33:10;0.15;;;0.15;;
19547;SDS011;9919;58.014;11.826;2023-01-05T06:35:12;0.10;;;0.10;;
19547;SDS011;9919;58.014;11.826;2023-01-05T06:37:13;0.20;;;0.20;;
19547;SDS011;9919;58.014;11.826;2023-01-05T06:39:14;0.20;;;0.20;;
19547;SDS011;9919;58.014;11.826;2023-01-05T06:41:16;0.20;;;0.20;;
19547;SDS011;9919;58.014;11.826;2023-01-05T06:43:18;0.20;;;0.20;;
19547;SDS011;9919;58.014;11.826;2023-01-05T06:45:19;0.20;;;0.20;;
19547;SDS011;9919;58.014;11.826;2023-01-05T06:47:21;0.17;;;0.17;;
19547;SDS011;9919;58.014;11.826;2023-01-05T06:49:23;0.10;;;0.10;;
19547;SDS011;9919;58.014;11.826;2023-01-05T06:51:24;0.10;;;0.10;;
19547;SDS011;9919;58.014;11.826;2023-01-05T06:53:25;0.10;;;0.10;;
19547;SDS011;9919;58.014;11.826;2023-01-05T06:55:26;0.20;;;0.20;;
19547;SDS011;9919;58.014;11.826;2023-01-05T06:57:28;0.20;;;0.20;;
19547;SDS011;9919;58.014;11.826;2023-01-05T06:59:29;0.20;;;0.20;;
19547;SDS011;9919;58.014;11.826;2023-01-05T07:01:32;0.20;;;0.20;;
19547;SDS011;9919;58.014;11.826;2023-01-05T07:03:33;0.30;;;0.30;;
19547;SDS011;9919;58.014;11.826;2023-01-05T07:05:36;0.10;;;0.10;;
19547;SDS011;9919;58.014;11.826;2023-01-05T07:07:39;0.20;;;0.20;;
19547;SDS011;9919;58.014;11.826;2023-01-05T07:09:42;0.20;;;0.20;;
19547;SDS011;9919;58.014;11.826;2023-01-05T07:11:48;0.47;;;0.25;;
19547;SDS011;9919;58.014;11.826;2023-01-05T07:13:50;0.20;;;0.20;;
19547;SDS011;9919;58.014;11.826;2023-01-05T07:15:51;0.10;;;0.10;;
19547;SDS011;9919;58.014;11.826;2023-01-05T07:17:52;0.30;;;0.30;;
19547;SDS011;9919;58.014;11.826;2023-01-05T07:19:54;0.15;;;0.15;;
19547;SDS011;9919;58.014;11.826;2023-01-05T07:21:56;0.20;;;0.20;;
19547;SDS011;9919;58.014;11.826;2023-01-05T07:23:57;0.10;;;0.10;;
19547;SDS011;9919;58.014;11.826;2023-01-05T07:25:59;0.20;;;0.20;;
19547;SDS011;9919;58.014;11.826;2023-01-05T07:28:01;0.30;;;0.30;;
19547;SDS011;9919;58.014;11.826;2023-01-05T07:30:03;1.02;;;0.47;;
19547;SDS011;9919;58.014;11.826;2023-01-05T07:32:05;0.57;;;0.30;;
19547;SDS011;9919;58.014;11.826;2023-01-05T07:34:07;0.20;;;0.20;;
19547;SDS011;9919;58.014;11.826;2023-01-05T07:36:10;0.20;;;0.20;;
19547;SDS011;9919;58.014;11.826;2023-01-05T07:38:11;0.10;;;0.10;;
19547;SDS011;9919;58.014;11.826;2023-01-05T07:40:13;0.20;;;0.20;;
19547;SDS011;9919;58.014;11.826;2023-01-05T07:42:14;0.20;;;0.20;;
19547;SDS011;9919;58.014;11.826;2023-01-05T07:44:15;0.20;;;0.20;;
19547;SDS011;9919;58.014;11.826;2023-01-05T07:46:17;0.28;;;0.28;;
19547;SDS011;9919;58.014;11.826;2023-01-05T07:48:18;0.20;;;0.20;;
19547;SDS011;9919;58.014;11.826;2023-01-05T07:50:20;1.65;;;0.50;;
19547;SDS011;9919;58.014;11.826;2023-01-05T07:52:21;0.28;;;0.28;;
19547;SDS011;9919;58.014;11.826;2023-01-05T07:54:22;0.38;;;0.20;;
19547;SDS011;9919;58.014;11.826;2023-01-05T07:56:24;0.57;;;0.32;;
19547;SDS011;9919;58.014;11.826;2023-01-05T07:58:27;0.32;;;0.32;;
19547;SDS011;9919;58.014;11.826;2023-01-05T08:00:29;0.10;;;0.10;;
19547;SDS011;9919;58.014;11.826;2023-01-05T08:02:30;0.10;;;0.10;;
19547;SDS011;9919;58.014;11.826;2023-01-05T08:04:32;0.20;;;0.20;;
19547;SDS011;9919;58.014;11.826;2023-01-05T08:06:33;0.22;;;0.22;;
19547;SDS011;9919;58.014;11.826;2023-01-05T08:08:34;0.20;;;0.20;;
19547;SDS011;9919;58.014;11.826;2023-01-05T08:10:37;0.25;;;0.20;;
19547;SDS011;9919;58.014;11.826;2023-01-05T08:12:40;0.10;;;0.10;;
19547;SDS011;9919;58.014;11.826;2023-01-05T08:15:01;0.20;;;0.20;;
19547;SDS011;9919;58.014;11.826;2023-01-05T08:17:02;0.82;;;0.20;;
19547;SDS011;9919;58.014;11.826;2023-01-05T08:19:05;0.35;;;0.28;;
19547;SDS011;9919;58.014;11.826;2023-01-05T08:21:08;0.38;;;0.28;;
19547;SDS011;9919;58.014;11.826;2023-01-05T08:23:09;0.20;;;0.20;;
19547;SDS011;9919;58.014;11.826;2023-01-05T08:25:11;0.30;;;0.30;;
19547;SDS011;9919;58.014;11.826;2023-01-05T08:27:12;0.20;;;0.20;;
19547;SDS011;9919;58.014;11.826;2023-01-05T08:29:13;0.85;;;0.35;;
19547;SDS011;9919;58.014;11.826;2023-01-05T08:31:22;0.38;;;0.38;;
19547;SDS011;9919;58.014;11.826;2023-01-05T08:33:25;0.30;;;0.30;;
19547;SDS011;9919;58.014;11.826;2023-01-05T08:35:27;0.90;;;0.20;;
19547;SDS011;9919;58.014;11.826;2023-01-05T08:37:28;0.20;;;0.20;;
19547;SDS011;9919;58.014;11.826;2023-01-05T08:39:30;0.10;;;0.10;;
19547;SDS011;9919;58.014;11.826;2023-01-05T08:41:33;0.30;;;0.30;;
19547;SDS011;9919;58.014;11.826;2023-01-05T08:43:35;0.30;;;0.30;;
19547;SDS011;9919;58.014;11.826;2023-01-05T08:45:36;0.20;;;0.20;;
19547;SDS011;9919;58.014;11.826;2023-01-05T08:47:38;1.30;;;0.60;;
19547;SDS011;9919;58.014;11.826;2023-01-05T08:49:40;0.43;;;0.30;;
19547;SDS011;9919;58.014;11.826;2023-01-05T08:51:42;0.68;;;0.38;;
19547;SDS011;9919;58.014;11.826;2023-01-05T08:53:43;0.93;;;0.30;;
19547;SDS011;9919;58.014;11.826;2023-01-05T08:55:45;1.48;;;0.20;;
19547;SDS011;9919;58.014;11.826;2023-01-05T08:57:46;0.32;;;0.32;;
19547;SDS011;9919;58.014;11.826;2023-01-05T08:59:48;0.10;;;0.10;;
19547;SDS011;9919;58.014;11.826;2023-01-05T09:01:49;0.20;;;0.20;;
19547;SDS011;9919;58.014;11.826;2023-01-05T09:03:51;2.28;;;0.35;;
19547;SDS011;9919;58.014;11.826;2023-01-05T09:05:52;0.55;;;0.35;;
19547;SDS011;9919;58.014;11.826;2023-01-05T09:07:58;0.38;;;0.38;;
19547;SDS011;9919;58.014;11.826;2023-01-05T09:10:00;0.57;;;0.57;;
19547;SDS011;9919;58.014;11.826;2023-01-05T09:12:01;0.25;;;0.25;;
19547;SDS011;9919;58.014;11.826;2023-01-05T09:14:03;1.65;;;0.57;;
19547;SDS011;9919;58.014;11.826;2023-01-05T09:16:05;0.25;;;0.25;;
19547;SDS011;9919;58.014;11.826;2023-01-05T09:18:07;0.20;;;0.20;;
19547;SDS011;9919;58.014;11.826;2023-01-05T09:20:09;0.43;;;0.22;;
19547;SDS011;9919;58.014;11.826;2023-01-05T09:22:12;0.10;;;0.10;;
19547;SDS011;9919;58.014;11.826;2023-01-05T09:24:13;0.17;;;0.17;;
19547;SDS011;9919;58.014;11.826;2023-01-05T09:26:15;0.20;;;0.20;;
19547;SDS011;9919;58.014;11.826;2023-01-05T09:28:16;0.30;;;0.30;;
19547;SDS011;9919;58.014;11.826;2023-01-05T09:30:19;0.38;;;0.30;;
19547;SDS011;9919;58.014;11.826;2023-01-05T09:32:20;0.52;;;0.20;;
19547;SDS011;9919;58.014;11.826;2023-01-05T09:34:23;0.20;;;0.20;;
19547;SDS011;9919;58.014;11.826;2023-01-05T09:36:24;1.52;;;0.30;;
19547;SDS011;9919;58.014;11.826;2023-01-05T09:38:25;0.17;;;0.17;;
19547;SDS011;9919;58.014;11.826;2023-01-05T09:40:27;2.85;;;0.35;;
19547;SDS011;9919;58.014;11.826;2023-01-05T09:42:29;1.00;;;0.30;;
19547;SDS011;9919;58.014;11.826;2023-01-05T09:44:34;0.20;;;0.13;;
19547;SDS011;9919;58.014;11.826;2023-01-05T09:46:40;0.45;;;0.45;;
19547;SDS011;9919;58.014;11.826;2023-01-05T09:48:44;0.32;;;0.32;;
19547;SDS011;9919;58.014;11.826;2023-01-05T09:50:48;0.30;;;0.30;;
19547;SDS011;9919;58.014;11.826;2023-01-05T09:52:51;0.30;;;0.30;;
19547;SDS011;9919;58.014;11.826;2023-01-05T09:54:55;0.25;;;0.25;;
19547;SDS011;9919;58.014;11.826;2023-01-05T09:56:56;0.77;;;0.38;;
19547;SDS011;9919;58.014;11.826;2023-01-05T09:59:02;0.38;;;0.15;;
19547;SDS011;9919;58.014;11.826;2023-01-05T10:01:06;2.05;;;0.30;;
19547;SDS011;9919;58.014;11.826;2023-01-05T10:03:16;0.10;;;0.10;;
19547;SDS011;9919;58.014;11.826;2023-01-05T10:05:19;1.27;;;0.20;;
19547;SDS011;9919;58.014;11.826;2023-01-05T10:07:29;1.88;;;0.20;;
19547;SDS011;9919;58.014;11.826;2023-01-05T10:09:42;0.10;;;0.10;;
19547;SDS011;9919;58.014;11.826;2023-01-05T10:16:16;0.55;;;0.20;;
19547;SDS011;9919;58.014;11.826;2023-01-05T10:18:25;0.38;;;0.38;;
19547;SDS011;9919;58.014;11.826;2023-01-05T10:22:59;0.20;;;0.20;;
19547;SDS011;9919;58.014;11.826;2023-01-05T10:25:12;0.20;;;0.20;;
19547;SDS011;9919;58.014;11.826;2023-01-05T10:27:38;0.30;;;0.30;;
19547;SDS011;9919;58.014;11.826;2023-01-05T10:31:48;1.75;;;0.30;;
19547;SDS011;9919;58.014;11.826;2023-01-05T10:34:02;0.30;;;0.30;;
19547;SDS011;9919;58.014;11.826;2023-01-05T10:41:03;0.22;;;0.22;;
19547;SDS011;9919;58.014;11.826;2023-01-05T10:45:37;0.25;;;0.25;;
19547;SDS011;9919;58.014;11.826;2023-01-05T10:47:39;0.88;;;0.43;;
19547;SDS011;9919;58.014;11.826;2023-01-05T10:49:43;0.30;;;0.30;;
19547;SDS011;9919;58.014;11.826;2023-01-05T10:51:45;1.65;;;0.30;;
19547;SDS011;9919;58.014;11.826;2023-01-05T10:53:47;0.50;;;0.50;;
19547;SDS011;9919;58.014;11.826;2023-01-05T10:55:51;2.72;;;0.50;;
19547;SDS011;9919;58.014;11.826;2023-01-05T10:58:03;1.13;;;0.88;;
19547;SDS011;9919;58.014;11.826;2023-01-05T11:00:18;1.23;;;0.70;;
19547;SDS011;9919;58.014;11.826;2023-01-05T11:02:22;0.50;;;0.50;;
19547;SDS011;9919;58.014;11.826;2023-01-05T11:04:24;1.02;;;0.65;;
19547;SDS011;9919;58.014;11.826;2023-01-05T11:06:27;0.57;;;0.57;;
19547;SDS011;9919;58.014;11.826;2023-01-05T11:08:30;0.52;;;0.52;;
19547;SDS011;9919;58.014;11.826;2023-01-05T11:10:40;0.45;;;0.45;;
19547;SDS011;9919;58.014;11.826;2023-01-05T11:12:53;0.43;;;0.43;;
19547;SDS011;9919;58.014;11.826;2023-01-05T11:14:59;1.05;;;0.70;;
19547;SDS011;9919;58.014;11.826;2023-01-05T11:17:02;1.77;;;0.82;;
19547;SDS011;9919;58.014;11.826;2023-01-05T11:19:05;3.40;;;0.60;;
19547;SDS011;9919;58.014;11.826;2023-01-05T11:21:13;0.75;;;0.73;;
19547;SDS011;9919;58.014;11.826;2023-01-05T11:23:30;0.90;;;0.77;;
19547;SDS011;9919;58.014;11.826;2023-01-05T11:25:37;1.20;;;0.80;;
19547;SDS011;9919;58.014;11.826;2023-01-05T11:27:39;0.63;;;0.63;;
19547;SDS011;9919;58.014;11.826;2023-01-05T11:29:41;0.70;;;0.68;;
19547;SDS011;9919;58.014;11.826;2023-01-05T11:34:05;0.60;;;0.50;;
19547;SDS011;9919;58.014;11.826;2023-01-05T11:36:12;0.40;;;0.40;;
19547;SDS011;9919;58.014;11.826;2023-01-05T11:40:41;0.43;;;0.43;;
19547;SDS011;9919;58.014;11.826;2023-01-05T11:42:43;0.70;;;0.70;;
19547;SDS011;9919;58.014;11.826;2023-01-05T11:44:47;1.20;;;0.70;;
19547;SDS011;9919;58.014;11.826;2023-01-05T11:46:49;0.82;;;0.80;;
19547;SDS011;9919;58.014;11.826;2023-01-05T11:48:54;1.17;;;0.70;;
19547;SDS011;9919;58.014;11.826;2023-01-05T11:50:57;0.60;;;0.60;;
19547;SDS011;9919;58.014;11.826;2023-01-05T11:53:00;1.77;;;0.70;;
19547;SDS011;9919;58.014;11.826;2023-01-05T11:57:24;0.52;;;0.50;;
19547;SDS011;9919;58.014;11.826;2023-01-05T11:59:27;0.80;;;0.80;;
19547;SDS011;9919;58.014;11.826;2023-01-05T12:05:56;1.67;;;0.70;;
19547;SDS011;9919;58.014;11.826;2023-01-05T12:08:04;0.60;;;0.60;;
19547;SDS011;9919;58.014;11.826;2023-01-05T12:20:17;0.50;;;0.50;;
19547;SDS011;9919;58.014;11.826;2023-01-05T12:38:07;0.90;;;0.70;;
19547;SDS011;9919;58.014;11.826;2023-01-05T12:40:16;0.50;;;0.50;;
19547;SDS011;9919;58.014;11.826;2023-01-05T12:47:59;0.70;;;0.70;;
19547;SDS011;9919;58.014;11.826;2023-01-05T12:49:59;0.50;;;0.45;;
19547;SDS011;9919;58.014;11.826;2023-01-05T12:52:23;0.57;;;0.57;;
19547;SDS011;9919;58.014;11.826;2023-01-05T12:54:39;0.70;;;0.70;;
19547;SDS011;9919;58.014;11.826;2023-01-05T12:56:52;0.65;;;0.55;;
19547;SDS011;9919;58.014;11.826;2023-01-05T12:59:12;0.40;;;0.40;;
19547;SDS011;9919;58.014;11.826;2023-01-05T13:01:41;0.50;;;0.50;;
19547;SDS011;9919;58.014;11.826;2023-01-05T13:03:55;0.52;;;0.50;;
19547;SDS011;9919;58.014;11.826;2023-01-05T13:08:04;0.70;;;0.57;;
19547;SDS011;9919;58.014;11.826;2023-01-05T13:10:18;0.85;;;0.63;;
19547;SDS011;9919;58.014;11.826;2023-01-05T13:12:24;0.93;;;0.65;;
19547;SDS011;9919;58.014;11.826;2023-01-05T13:14:27;0.50;;;0.50;;
19547;SDS011;9919;58.014;11.826;2023-01-05T13:16:38;0.50;;;0.50;;
19547;SDS011;9919;58.014;11.826;2023-01-05T13:18:41;0.65;;;0.65;;
19547;SDS011;9919;58.014;11.826;2023-01-05T13:21:00;0.47;;;0.47;;
19547;SDS011;9919;58.014;11.826;2023-01-05T13:23:03;0.50;;;0.50;;
19547;SDS011;9919;58.014;11.826;2023-01-05T13:25:19;0.60;;;0.60;;
19547;SDS011;9919;58.014;11.826;2023-01-05T13:27:23;1.50;;;0.60;;
19547;SDS011;9919;58.014;11.826;2023-01-05T13:29:26;0.73;;;0.57;;
19547;SDS011;9919;58.014;11.826;2023-01-05T13:38:37;0.35;;;0.35;;
19547;SDS011;9919;58.014;11.826;2023-01-05T13:53:30;1.20;;;0.60;;
19547;SDS011;9919;58.014;11.826;2023-01-05T13:55:39;0.35;;;0.35;;
19547;SDS011;9919;58.014;11.826;2023-01-05T13:57:47;0.63;;;0.52;;
19547;SDS011;9919;58.014;11.826;2023-01-05T13:59:51;0.40;;;0.40;;
19547;SDS011;9919;58.014;11.826;2023-01-05T14:02:03;0.47;;;0.47;;
19547;SDS011;9919;58.014;11.826;2023-01-05T14:04:29;3.25;;;0.73;;
19547;SDS011;9919;58.014;11.826;2023-01-05T14:06:33;0.70;;;0.70;;
19547;SDS011;9919;58.014;11.826;2023-01-05T14:08:38;0.75;;;0.75;;
19547;SDS011;9919;58.014;11.826;2023-01-05T14:10:40;0.50;;;0.50;;
19547;SDS011;9919;58.014;11.826;2023-01-05T14:12:43;0.50;;;0.50;;
19547;SDS011;9919;58.014;11.826;2023-01-05T14:16:58;0.55;;;0.55;;